createdAt,value
2022-12-24T00:01:04.282Z,1004.28
2022-12-24T00:05:08.106Z,1004.4
2022-12-24T00:10:08.737Z,1004.53
2022-12-24T00:15:08.540Z,1004.57
2022-12-24T00:20:08.391Z,1004.61
2022-12-24T00:25:08.223Z,1004.6
2022-12-24T00:30:07.992Z,1004.76
2022-12-24T00:35:07.836Z,1004.76
2022-12-24T00:40:08.659Z,1004.67
2022-12-24T00:45:08.515Z,1004.68
2022-12-24T00:50:08.308Z,1004.7
2022-12-24T00:55:08.104Z,1004.79
2022-12-24T01:00:07.940Z,1004.92
2022-12-24T01:05:08.213Z,1004.96
2022-12-24T01:10:08.075Z,1005.02
2022-12-24T01:15:07.877Z,1005.08
2022-12-24T01:20:08.695Z,1005.32
2022-12-24T01:25:08.517Z,1005.32
2022-12-24T01:30:08.344Z,1005.55
2022-12-24T01:35:08.123Z,1005.65
2022-12-24T01:40:07.964Z,1005.71
2022-12-24T01:45:07.770Z,1005.78
2022-12-24T01:50:08.622Z,1005.76
2022-12-24T01:55:08.400Z,1005.87
2022-12-24T02:00:08.281Z,1005.85
2022-12-24T02:05:08.092Z,1005.88
2022-12-24T02:10:07.883Z,1005.83
2022-12-24T02:15:08.694Z,1006.0
2022-12-24T02:20:08.491Z,1006.14
2022-12-24T02:25:08.330Z,1006.16
2022-12-24T02:30:08.155Z,1006.25
2022-12-24T02:35:07.916Z,1006.33
2022-12-24T02:40:15.722Z,1006.45
2022-12-24T02:45:08.300Z,1006.46
2022-12-24T02:50:08.083Z,1006.49
2022-12-24T02:55:07.940Z,1006.54
2022-12-24T03:00:07.735Z,1006.49
2022-12-24T03:05:08.607Z,1006.6
2022-12-24T03:10:08.483Z,1006.62
2022-12-24T03:15:08.327Z,1006.58
2022-12-24T03:20:08.173Z,1006.72
2022-12-24T03:25:07.960Z,1006.74
2022-12-24T03:30:08.438Z,1006.67
2022-12-24T03:35:08.879Z,1006.92
2022-12-24T03:40:10.056Z,1006.84
2022-12-24T03:45:08.499Z,1006.93
2022-12-24T03:50:08.299Z,1006.95
2022-12-24T03:55:08.114Z,1007.04
2022-12-24T04:00:07.925Z,1007.12
2022-12-24T04:05:08.796Z,1007.1
2022-12-24T04:10:08.588Z,1007.17
2022-12-24T04:15:08.401Z,1007.14
2022-12-24T04:20:08.277Z,1007.09
2022-12-24T04:25:08.115Z,1007.22
2022-12-24T04:30:07.928Z,1007.22
2022-12-24T04:35:08.765Z,1007.26
2022-12-24T04:40:08.580Z,1007.29
2022-12-24T04:45:08.398Z,1007.34
2022-12-24T04:50:08.211Z,1007.33
2022-12-24T04:55:08.104Z,1007.41
2022-12-24T05:00:07.965Z,1007.32
2022-12-24T05:05:01.936Z,1007.41
2022-12-24T05:10:01.906Z,1007.45
2022-12-24T05:15:02.851Z,1007.46
2022-12-24T05:20:02.799Z,1007.52
2022-12-24T05:25:02.894Z,1007.47
2022-12-24T05:30:02.327Z,1007.48
2022-12-24T05:35:02.268Z,1007.51
2022-12-24T05:40:02.095Z,1007.5
2022-12-24T05:45:01.916Z,1007.55
2022-12-24T05:50:01.876Z,1007.59
2022-12-24T05:55:02.849Z,1007.72
2022-12-24T06:00:02.776Z,1007.68
2022-12-24T06:05:02.834Z,1007.61
2022-12-24T06:10:02.826Z,1007.67
2022-12-24T06:15:02.736Z,1007.71
2022-12-24T06:20:02.610Z,1007.81
2022-12-24T06:25:02.546Z,1007.96
2022-12-24T06:30:02.473Z,1007.96
2022-12-24T06:35:02.418Z,1008.01
2022-12-24T06:40:02.537Z,1008.01
2022-12-24T06:45:08.066Z,1008.15
2022-12-24T06:50:02.617Z,1008.25
2022-12-24T06:55:02.551Z,1008.37
2022-12-24T07:00:02.447Z,1008.39
2022-12-24T07:05:02.421Z,1008.44
2022-12-24T07:10:02.441Z,1008.45
2022-12-24T07:15:02.345Z,1008.44
2022-12-24T07:20:02.320Z,1008.55
2022-12-24T07:25:02.366Z,1008.58
2022-12-24T07:30:02.309Z,1008.59
2022-12-24T07:35:02.120Z,1008.68
2022-12-24T07:40:02.113Z,1008.71
2022-12-24T07:45:02.103Z,1008.83
2022-12-24T07:50:02.116Z,1008.81
2022-12-24T07:55:02.347Z,1009.07
2022-12-24T08:00:02.366Z,1009.04
2022-12-24T08:05:02.338Z,1009.25
2022-12-24T08:10:02.285Z,1009.26
2022-12-24T08:15:02.314Z,1009.51
2022-12-24T08:20:02.143Z,1009.54
2022-12-24T08:25:02.068Z,1009.65
2022-12-24T08:30:01.999Z,1009.66
2022-12-24T08:35:02.843Z,1009.74
2022-12-24T08:40:02.886Z,1009.88
2022-12-24T08:45:02.824Z,1009.9
2022-12-24T08:50:02.646Z,1009.88
2022-12-24T08:55:02.486Z,1009.9
2022-12-24T09:00:02.447Z,1010.05
2022-12-24T09:05:02.356Z,1010.1
2022-12-24T09:10:02.390Z,1010.19
2022-12-24T09:15:04.069Z,1010.39
2022-12-24T09:20:02.367Z,1010.36
2022-12-24T09:25:02.296Z,1010.51
2022-12-24T09:30:02.242Z,1010.61
2022-12-24T09:35:02.140Z,1010.56
2022-12-24T09:40:02.106Z,1010.56
2022-12-24T09:45:02.027Z,1010.73
2022-12-24T09:50:01.981Z,1010.85
2022-12-24T09:55:01.917Z,1010.86
2022-12-24T10:00:02.873Z,1010.93
2022-12-24T10:05:02.811Z,1010.9
2022-12-24T10:10:02.738Z,1010.95
2022-12-24T10:15:02.693Z,1011.0
2022-12-24T10:20:02.703Z,1011.11
2022-12-24T10:25:02.664Z,1011.02
2022-12-24T10:30:02.657Z,1011.2
2022-12-24T10:35:02.611Z,1011.11
2022-12-24T10:40:02.654Z,1011.21
2022-12-24T10:45:02.655Z,1011.17
2022-12-24T10:50:02.610Z,1011.08
2022-12-24T10:55:12.563Z,1011.12
2022-12-24T11:00:02.479Z,1011.03
2022-12-24T11:05:02.330Z,1011.08
2022-12-24T11:10:02.265Z,1011.03
2022-12-24T11:15:02.174Z,1011.15
2022-12-24T11:20:02.130Z,1011.14
2022-12-24T11:25:02.138Z,1011.12
2022-12-24T11:30:05.147Z,1011.12
2022-12-24T11:35:02.616Z,1011.11
2022-12-24T11:40:02.646Z,1011.1
2022-12-24T11:45:02.484Z,1010.98
2022-12-24T11:50:17.588Z,1011.05
2022-12-24T11:55:02.758Z,1011.25
2022-12-24T12:00:02.746Z,1011.11
2022-12-24T12:05:02.659Z,1011.19
2022-12-24T12:10:02.593Z,1011.35
2022-12-24T12:15:02.525Z,1011.37
2022-12-24T12:20:02.458Z,1011.39
2022-12-24T12:25:02.479Z,1011.39
2022-12-24T12:30:02.411Z,1011.44
2022-12-24T12:35:02.421Z,1011.46
2022-12-24T12:40:02.410Z,1011.45
2022-12-24T12:45:03.955Z,1011.49
2022-12-24T12:50:01.822Z,1011.53
2022-12-24T12:55:02.740Z,1011.71
2022-12-24T13:00:02.747Z,1011.8
2022-12-24T13:05:02.674Z,1011.73
2022-12-24T13:10:02.769Z,1011.76
2022-12-24T13:15:02.825Z,1011.77
2022-12-24T13:20:02.789Z,1011.82
2022-12-24T13:25:02.805Z,1011.91
2022-12-24T13:30:09.549Z,1011.97
2022-12-24T13:35:02.057Z,1012.16
2022-12-24T13:40:02.178Z,1012.12
2022-12-24T13:45:02.055Z,1012.18
2022-12-24T13:50:01.994Z,1012.26
2022-12-24T13:55:01.979Z,1012.29
2022-12-24T14:00:01.938Z,1012.22
2022-12-24T14:05:01.811Z,1012.22
2022-12-24T14:10:02.794Z,1012.29
2022-12-24T14:15:02.821Z,1012.34
2022-12-24T14:20:02.742Z,1012.3
2022-12-24T14:25:03.368Z,1012.48
2022-12-24T14:30:02.312Z,1012.56
2022-12-24T14:35:02.231Z,1012.72
2022-12-24T14:40:02.165Z,1012.76
2022-12-24T14:45:02.117Z,1012.8
2022-12-24T14:50:01.990Z,1012.75
2022-12-24T14:55:01.938Z,1012.76
2022-12-24T15:00:02.955Z,1012.82
2022-12-24T15:05:01.904Z,1012.92
2022-12-24T15:10:02.996Z,1012.94
2022-12-24T15:15:01.968Z,1013.02
2022-12-24T15:20:02.197Z,1013.16
2022-12-24T15:25:02.242Z,1013.27
2022-12-24T15:30:02.136Z,1013.3
2022-12-24T15:35:02.053Z,1013.2
2022-12-24T15:40:02.111Z,1013.25
2022-12-24T15:45:02.087Z,1013.43
2022-12-24T15:50:02.032Z,1013.38
2022-12-24T15:55:01.951Z,1013.42
2022-12-24T16:00:01.972Z,1013.47
2022-12-24T16:05:01.932Z,1013.52
2022-12-24T16:10:02.102Z,1013.61
2022-12-24T16:15:02.089Z,1013.56
2022-12-24T16:20:02.040Z,1013.56
2022-12-24T16:25:01.869Z,1013.65
2022-12-24T16:30:02.733Z,1013.58
2022-12-24T16:35:02.695Z,1013.57
2022-12-24T16:40:02.720Z,1013.76
2022-12-24T16:45:02.706Z,1013.81
2022-12-24T16:50:02.743Z,1013.82
2022-12-24T16:55:02.687Z,1013.84
2022-12-24T17:00:02.549Z,1013.77
2022-12-24T17:05:02.471Z,1013.84
2022-12-24T17:10:02.504Z,1013.87
2022-12-24T17:15:02.453Z,1013.92
2022-12-24T17:20:02.405Z,1013.96
2022-12-24T17:25:02.305Z,1013.99
2022-12-24T17:30:02.379Z,1014.06
2022-12-24T17:35:02.274Z,1014.02
2022-12-24T17:40:02.208Z,1013.91
2022-12-24T17:45:02.141Z,1013.91
2022-12-24T17:50:02.088Z,1014.09
2022-12-24T17:55:02.225Z,1014.2
2022-12-24T18:00:02.042Z,1014.16
2022-12-24T18:05:02.010Z,1014.16
2022-12-24T18:10:01.911Z,1013.99
2022-12-24T18:15:02.778Z,1014.02
2022-12-24T18:20:02.740Z,1013.93
2022-12-24T18:25:02.874Z,1013.93
2022-12-24T18:30:02.818Z,1013.97
2022-12-24T18:35:02.824Z,1014.05
2022-12-24T18:40:02.796Z,1014.01
2022-12-24T18:45:02.799Z,1014.07
2022-12-24T18:50:03.031Z,1014.15
2022-12-24T18:55:02.067Z,1014.23
2022-12-24T19:00:02.086Z,1014.13
2022-12-24T19:05:01.994Z,1014.03
2022-12-24T19:10:01.895Z,1013.97
2022-12-24T19:15:01.844Z,1014.0
2022-12-24T19:20:02.731Z,1013.91
2022-12-24T19:25:02.618Z,1013.95
2022-12-24T19:30:02.504Z,1014.17
2022-12-24T19:35:02.498Z,1014.09
2022-12-24T19:40:02.398Z,1014.12
2022-12-24T19:45:02.295Z,1014.16
2022-12-24T19:50:02.269Z,1014.14
2022-12-24T19:55:02.170Z,1014.11
2022-12-24T20:00:02.138Z,1014.16
2022-12-24T20:05:02.016Z,1014.12
2022-12-24T20:10:02.006Z,1014.0
2022-12-24T20:15:02.023Z,1014.06
2022-12-24T20:20:01.951Z,1014.2
2022-12-24T20:25:01.898Z,1014.31
2022-12-24T20:30:02.881Z,1014.36
2022-12-24T20:35:02.714Z,1014.41
2022-12-24T20:40:02.597Z,1014.5
2022-12-24T20:45:02.428Z,1014.46
2022-12-24T20:50:02.482Z,1014.45
2022-12-24T20:55:02.325Z,1014.57
2022-12-24T21:00:02.224Z,1014.53
2022-12-24T21:05:02.886Z,1014.56
2022-12-24T21:10:02.041Z,1014.46
2022-12-24T21:15:02.046Z,1014.34
2022-12-24T21:20:02.003Z,1014.27
2022-12-24T21:25:02.119Z,1014.31
2022-12-24T21:30:02.086Z,1014.24
2022-12-24T21:35:02.127Z,1014.38
2022-12-24T21:40:02.146Z,1014.22
2022-12-24T21:45:02.134Z,1014.19
2022-12-24T21:50:11.837Z,1014.23
2022-12-24T21:55:03.389Z,1013.93
2022-12-24T22:00:02.381Z,1013.84
2022-12-24T22:05:02.281Z,1013.95
2022-12-24T22:10:02.313Z,1013.85
2022-12-24T22:15:02.395Z,1013.88
2022-12-24T22:20:02.302Z,1013.75
2022-12-24T22:25:02.217Z,1013.65
2022-12-24T22:30:02.173Z,1013.76
2022-12-24T22:35:14.930Z,1013.8
2022-12-24T22:40:07.746Z,1013.88
2022-12-24T22:45:08.527Z,1013.71
2022-12-24T22:50:08.358Z,1013.66
2022-12-24T22:55:08.175Z,1013.72
2022-12-24T23:00:08.370Z,1013.77
2022-12-24T23:05:08.241Z,1013.69
2022-12-24T23:10:08.079Z,1013.68
2022-12-24T23:15:07.879Z,1013.8
2022-12-24T23:20:08.878Z,1013.76
2022-12-24T23:25:08.686Z,1013.77
2022-12-24T23:30:08.535Z,1013.72
2022-12-24T23:35:08.384Z,1013.89
2022-12-24T23:40:08.164Z,1013.92
2022-12-24T23:45:07.985Z,1013.98
2022-12-24T23:50:07.864Z,1014.09
2022-12-24T23:55:08.713Z,1014.22
